createdAt,value
2022-11-25T00:01:21.473Z,6.61
2022-11-25T00:03:49.011Z,6.56
2022-11-25T00:06:21.831Z,6.61
2022-11-25T00:08:50.568Z,6.58
2022-11-25T00:11:18.175Z,6.57
2022-11-25T00:13:45.864Z,6.58
2022-11-25T00:16:15.217Z,6.61
2022-11-25T00:18:45.905Z,6.56
2022-11-25T00:21:15.610Z,6.55
2022-11-25T00:23:42.793Z,6.62
2022-11-25T00:26:16.622Z,6.69
2022-11-25T00:28:45.148Z,6.61
2022-11-25T00:31:25.930Z,6.54
2022-11-25T00:33:52.433Z,6.49
2022-11-25T00:36:23.632Z,6.62
2022-11-25T00:39:09.324Z,6.61
2022-11-25T00:41:54.257Z,6.53
2022-11-25T00:44:37.010Z,6.48
2022-11-25T00:47:04.142Z,6.47
2022-11-25T00:49:31.094Z,6.49
2022-11-25T00:51:57.554Z,6.58
2022-11-25T00:54:24.055Z,6.55
2022-11-25T00:56:51.147Z,6.55
2022-11-25T00:59:18.522Z,6.58
2022-11-25T01:01:45.074Z,6.53
2022-11-25T01:04:11.529Z,6.58
2022-11-25T01:06:38.191Z,6.49
2022-11-25T01:09:08.921Z,6.45
2022-11-25T01:11:35.632Z,6.43
2022-11-25T01:14:02.432Z,6.41
2022-11-25T01:16:29.962Z,6.38
2022-11-25T01:18:58.407Z,6.52
2022-11-25T01:21:27.134Z,6.55
2022-11-25T01:23:53.928Z,6.58
2022-11-25T01:26:23.428Z,6.50
2022-11-25T01:28:53.860Z,6.52
2022-11-25T01:31:21.959Z,6.51
2022-11-25T01:33:53.584Z,6.45
2022-11-25T01:36:20.012Z,6.44
2022-11-25T01:38:51.242Z,6.35
2022-11-25T01:41:18.200Z,6.45
2022-11-25T01:44:04.693Z,6.29
2022-11-25T01:46:37.026Z,6.42
2022-11-25T01:49:10.448Z,6.47
2022-11-25T01:51:48.394Z,6.45
2022-11-25T01:54:20.486Z,6.48
2022-11-25T01:56:53.354Z,6.48
2022-11-25T01:59:20.044Z,6.42
2022-11-25T02:01:46.849Z,6.40
2022-11-25T02:04:16.766Z,6.29
2022-11-25T02:06:57.519Z,6.36
2022-11-25T02:09:24.993Z,6.40
2022-11-25T02:11:52.317Z,6.33
2022-11-25T02:14:22.494Z,6.30
2022-11-25T02:16:49.180Z,6.43
2022-11-25T02:19:39.018Z,6.49
2022-11-25T02:22:15.332Z,6.45
2022-11-25T02:24:46.046Z,6.50
2022-11-25T02:27:13.313Z,6.47
2022-11-25T02:29:40.812Z,6.58
2022-11-25T02:32:07.377Z,6.48
2022-11-25T02:34:34.106Z,6.37
2022-11-25T02:37:01.165Z,6.30
2022-11-25T02:39:28.695Z,6.33
2022-11-25T02:41:58.411Z,6.32
2022-11-25T02:44:24.842Z,6.35
2022-11-25T02:46:51.307Z,6.36
2022-11-25T02:49:17.747Z,6.25
2022-11-25T02:51:45.352Z,6.38
2022-11-25T02:54:14.355Z,6.29
2022-11-25T02:56:40.873Z,6.29
2022-11-25T02:59:08.069Z,6.31
2022-11-25T03:01:35.589Z,6.33
2022-11-25T03:04:02.662Z,6.30
2022-11-25T03:06:29.964Z,6.29
2022-11-25T03:08:57.555Z,6.33
2022-11-25T03:11:44.630Z,6.22
2022-11-25T03:14:11.029Z,6.32
2022-11-25T03:16:37.540Z,6.20
2022-11-25T03:19:04.545Z,6.30
2022-11-25T03:21:31.470Z,6.17
2022-11-25T03:23:57.950Z,6.19
2022-11-25T03:26:25.981Z,6.13
2022-11-25T03:28:52.449Z,6.10
2022-11-25T03:31:18.955Z,6.12
2022-11-25T03:33:45.389Z,6.10
2022-11-25T03:36:11.796Z,6.32
2022-11-25T03:38:38.235Z,6.28
2022-11-25T03:41:04.756Z,6.24
2022-11-25T03:43:31.243Z,6.24
2022-11-25T03:45:57.691Z,6.25
2022-11-25T03:48:24.167Z,6.14
2022-11-25T03:50:50.593Z,6.06
2022-11-25T03:53:17.136Z,6.11
2022-11-25T03:55:43.579Z,6.01
2022-11-25T03:58:10.080Z,6.12
2022-11-25T04:00:38.587Z,6.11
2022-11-25T04:03:05.067Z,6.12
2022-11-25T04:05:31.503Z,6.13
2022-11-25T04:07:58.288Z,6.11
2022-11-25T04:10:25.000Z,6.19
2022-11-25T04:12:52.492Z,6.10
2022-11-25T04:15:19.414Z,6.01
2022-11-25T04:17:46.208Z,6.09
2022-11-25T04:20:13.875Z,6.11
2022-11-25T04:22:40.460Z,6.15
2022-11-25T04:25:07.408Z,6.05
2022-11-25T04:27:34.307Z,6.05
2022-11-25T04:30:00.843Z,6.07
2022-11-25T04:32:27.558Z,5.93
2022-11-25T04:34:54.089Z,6.08
2022-11-25T04:37:20.642Z,6.11
2022-11-25T04:39:47.106Z,6.10
2022-11-25T04:42:31.825Z,6.10
2022-11-25T04:45:22.177Z,6.07
2022-11-25T04:47:48.780Z,6.11
2022-11-25T04:50:19.249Z,6.14
2022-11-25T04:52:45.733Z,6.06
2022-11-25T04:55:12.190Z,6.11
2022-11-25T04:57:38.653Z,6.09
2022-11-25T05:00:06.580Z,6.14
2022-11-25T05:02:33.114Z,6.18
2022-11-25T05:04:59.637Z,6.30
2022-11-25T05:07:27.948Z,6.20
2022-11-25T05:09:54.734Z,6.17
2022-11-25T05:12:24.081Z,6.15
2022-11-25T05:14:50.641Z,6.23
2022-11-25T05:17:22.230Z,6.23
2022-11-25T05:19:49.785Z,6.16
2022-11-25T05:22:19.623Z,6.11
2022-11-25T05:24:46.660Z,6.07
2022-11-25T05:27:13.439Z,6.09
2022-11-25T05:29:39.861Z,6.05
2022-11-25T05:32:06.856Z,6.10
2022-11-25T05:34:33.387Z,6.07
2022-11-25T05:37:00.065Z,5.97
2022-11-25T05:39:26.634Z,5.94
2022-11-25T05:41:53.197Z,6.00
2022-11-25T05:44:23.101Z,6.02
2022-11-25T05:46:50.139Z,6.07
2022-11-25T05:49:17.566Z,6.07
2022-11-25T05:51:44.580Z,6.01
2022-11-25T05:54:11.720Z,6.07
2022-11-25T05:56:38.376Z,6.09
2022-11-25T05:59:06.202Z,6.07
2022-11-25T06:01:33.201Z,6.05
2022-11-25T06:04:01.446Z,6.02
2022-11-25T06:06:28.210Z,6.01
2022-11-25T06:08:54.653Z,5.93
2022-11-25T06:11:21.065Z,6.00
2022-11-25T06:13:47.581Z,6.03
2022-11-25T06:16:20.385Z,5.99
2022-11-25T06:18:47.104Z,6.17
2022-11-25T06:21:14.918Z,6.03
2022-11-25T06:23:41.409Z,5.98
2022-11-25T06:26:12.186Z,6.01
2022-11-25T06:28:38.631Z,6.08
2022-11-25T06:31:16.444Z,6.01
2022-11-25T06:33:43.202Z,5.93
2022-11-25T06:36:16.965Z,5.90
2022-11-25T06:38:54.247Z,5.99
2022-11-25T06:41:22.557Z,5.88
2022-11-25T06:43:49.033Z,5.91
2022-11-25T06:46:24.181Z,5.92
2022-11-25T06:48:52.004Z,6.16
2022-11-25T06:51:18.724Z,6.01
2022-11-25T06:53:45.818Z,6.06
2022-11-25T06:56:15.521Z,6.08
2022-11-25T06:58:43.147Z,6.05
2022-11-25T07:01:24.706Z,6.05
2022-11-25T07:03:53.930Z,6.09
2022-11-25T07:06:21.608Z,6.14
2022-11-25T07:08:48.471Z,6.31
2022-11-25T07:11:18.699Z,6.32
2022-11-25T07:13:45.985Z,6.31
2022-11-25T07:16:13.215Z,6.22
2022-11-25T07:18:41.132Z,6.21
2022-11-25T07:21:08.992Z,6.36
2022-11-25T07:23:36.797Z,6.31
2022-11-25T07:26:06.297Z,6.37
2022-11-25T07:28:33.553Z,6.33
2022-11-25T07:31:27.780Z,6.29
2022-11-25T07:33:59.521Z,6.37
2022-11-25T07:36:26.777Z,6.36
2022-11-25T07:38:53.292Z,6.44
2022-11-25T07:41:22.614Z,6.44
2022-11-25T07:43:52.275Z,6.56
2022-11-25T07:46:27.376Z,6.56
2022-11-25T07:48:56.084Z,6.59
2022-11-25T07:51:30.613Z,6.69
2022-11-25T07:53:58.506Z,6.67
2022-11-25T07:56:25.506Z,6.69
2022-11-25T07:58:52.085Z,6.75
2022-11-25T08:01:19.683Z,6.88
2022-11-25T08:03:48.561Z,6.86
2022-11-25T08:06:18.598Z,6.88
2022-11-25T08:08:46.036Z,6.95
2022-11-25T08:11:15.135Z,7.09
2022-11-25T08:13:42.100Z,7.03
2022-11-25T08:16:09.020Z,6.97
2022-11-25T08:18:35.609Z,7.06
2022-11-25T08:21:04.837Z,7.07
2022-11-25T08:23:32.999Z,7.11
2022-11-25T08:26:18.368Z,7.20
2022-11-25T08:28:46.928Z,7.21
2022-11-25T08:31:17.054Z,7.32
2022-11-25T08:33:44.162Z,7.35
2022-11-25T08:36:11.416Z,7.34
2022-11-25T08:38:38.521Z,7.28
2022-11-25T08:41:10.492Z,7.30
2022-11-25T08:43:38.502Z,7.20
2022-11-25T08:46:08.847Z,7.19
2022-11-25T08:48:35.574Z,7.20
2022-11-25T08:51:02.017Z,7.18
2022-11-25T08:53:28.741Z,7.18
2022-11-25T08:55:55.150Z,7.21
2022-11-25T08:58:21.613Z,7.12
2022-11-25T09:00:48.100Z,7.18
2022-11-25T09:03:14.694Z,7.08
2022-11-25T09:05:43.054Z,6.97
2022-11-25T09:08:10.714Z,6.96
2022-11-25T09:10:38.849Z,6.92
2022-11-25T09:13:05.362Z,6.97
2022-11-25T09:15:32.514Z,6.90
2022-11-25T09:18:04.947Z,6.96
2022-11-25T09:20:32.731Z,6.97
2022-11-25T09:23:01.251Z,6.90
2022-11-25T09:25:28.573Z,6.89
2022-11-25T09:27:55.979Z,6.92
2022-11-25T09:30:23.841Z,6.84
2022-11-25T09:32:52.796Z,6.94
2022-11-25T09:35:19.675Z,7.05
2022-11-25T09:37:46.160Z,7.04
2022-11-25T09:40:33.343Z,6.98
2022-11-25T09:43:38.417Z,7.01
2022-11-25T09:46:40.135Z,6.85
2022-11-25T09:49:33.990Z,6.86
2022-11-25T09:52:03.819Z,6.90
2022-11-25T09:54:36.859Z,6.85
2022-11-25T09:57:20.476Z,6.92
2022-11-25T09:59:57.113Z,7.05
2022-11-25T10:02:39.328Z,7.09
2022-11-25T10:05:18.481Z,7.23
2022-11-25T10:07:51.886Z,7.43
2022-11-25T10:10:22.250Z,7.48
2022-11-25T10:12:51.115Z,7.69
2022-11-25T10:15:20.983Z,7.95
2022-11-25T10:17:50.721Z,8.15
2022-11-25T10:20:23.785Z,8.20
2022-11-25T10:23:01.065Z,8.32
2022-11-25T10:25:35.295Z,8.34
2022-11-25T10:28:22.948Z,8.52
2022-11-25T10:31:15.269Z,8.84
2022-11-25T10:33:49.431Z,8.84
2022-11-25T10:36:23.744Z,8.75
2022-11-25T10:39:07.709Z,8.68
2022-11-25T10:41:42.978Z,8.77
2022-11-25T10:44:23.454Z,8.82
2022-11-25T10:47:30.661Z,8.88
2022-11-25T10:50:18.426Z,8.91
2022-11-25T10:52:57.249Z,8.60
2022-11-25T10:55:33.947Z,8.66
2022-11-25T10:58:25.415Z,8.84
2022-11-25T11:01:03.002Z,8.98
2022-11-25T11:03:29.508Z,9.14
2022-11-25T11:05:56.018Z,9.35
2022-11-25T11:08:28.552Z,9.50
2022-11-25T11:11:16.471Z,9.35
2022-11-25T11:13:43.495Z,9.20
2022-11-25T11:16:31.626Z,9.14
2022-11-25T11:18:58.532Z,9.03
2022-11-25T11:21:35.641Z,9.08
2022-11-25T11:24:04.449Z,9.04
2022-11-25T11:26:33.943Z,9.01
2022-11-25T11:29:21.509Z,9.09
2022-11-25T11:32:19.926Z,9.13
2022-11-25T11:35:02.417Z,9.02
2022-11-25T11:37:29.706Z,8.91
2022-11-25T11:40:17.979Z,8.93
2022-11-25T11:43:05.724Z,8.85
2022-11-25T11:46:13.429Z,9.05
2022-11-25T11:49:00.670Z,8.97
2022-11-25T11:51:37.598Z,9.07
2022-11-25T11:54:17.589Z,9.00
2022-11-25T11:57:04.249Z,9.03
2022-11-25T11:59:51.309Z,9.06
2022-11-25T12:02:31.191Z,9.04
2022-11-25T12:05:11.310Z,9.11
2022-11-25T12:07:53.104Z,9.16
2022-11-25T12:10:26.078Z,9.24
2022-11-25T12:13:05.554Z,9.32
2022-11-25T12:15:50.500Z,9.35
2022-11-25T12:18:41.888Z,9.38
2022-11-25T12:21:28.367Z,10.65
2022-11-25T12:24:19.438Z,11.27
2022-11-25T12:27:06.545Z,10.81
2022-11-25T12:29:48.734Z,10.63
2022-11-25T12:32:31.018Z,10.45
2022-11-25T12:35:19.709Z,10.11
2022-11-25T12:37:55.162Z,10.07
2022-11-25T12:40:42.727Z,10.00
2022-11-25T12:43:37.389Z,10.07
2022-11-25T12:46:45.227Z,10.00
2022-11-25T12:49:20.066Z,9.99
2022-11-25T12:51:54.028Z,10.01
2022-11-25T12:54:43.604Z,9.95
2022-11-25T12:57:37.988Z,9.90
2022-11-25T13:00:40.440Z,9.89
2022-11-25T13:03:16.210Z,9.95
2022-11-25T13:06:00.743Z,9.91
2022-11-25T13:08:42.091Z,10.02
2022-11-25T13:11:15.615Z,10.07
2022-11-25T13:14:13.279Z,10.23
2022-11-25T13:16:42.331Z,10.45
2022-11-25T13:19:12.044Z,10.82
2022-11-25T13:21:57.118Z,10.80
2022-11-25T13:24:41.327Z,10.97
2022-11-25T13:27:29.401Z,11.24
2022-11-25T13:29:55.917Z,11.59
2022-11-25T13:32:31.320Z,11.93
2022-11-25T13:35:22.620Z,12.07
2022-11-25T13:37:50.152Z,12.32
2022-11-25T13:40:31.467Z,12.23
2022-11-25T13:43:00.430Z,12.08
2022-11-25T13:45:43.518Z,11.82
2022-11-25T13:48:24.417Z,11.64
2022-11-25T13:51:10.732Z,11.38
2022-11-25T13:53:39.064Z,11.14
2022-11-25T13:56:25.265Z,10.94
2022-11-25T13:59:10.094Z,10.76
2022-11-25T14:01:41.528Z,10.77
2022-11-25T14:04:10.833Z,10.82
2022-11-25T14:07:06.643Z,10.87
2022-11-25T14:09:44.971Z,10.92
2022-11-25T14:12:21.612Z,10.90
2022-11-25T14:15:24.853Z,10.80
2022-11-25T14:19:00.313Z,10.77
2022-11-25T14:21:27.333Z,10.89
2022-11-25T14:24:15.931Z,10.85
2022-11-25T14:26:50.171Z,10.76
2022-11-25T14:29:32.225Z,10.69
2022-11-25T14:32:08.737Z,10.65
2022-11-25T14:34:41.192Z,10.52
2022-11-25T14:37:26.194Z,10.45
2022-11-25T14:40:01.292Z,10.38
2022-11-25T14:42:35.006Z,10.37
2022-11-25T14:45:02.053Z,10.36
2022-11-25T14:47:34.617Z,10.32
2022-11-25T14:50:33.641Z,10.29
2022-11-25T14:52:58.837Z,10.25
2022-11-25T14:55:32.010Z,10.25
2022-11-25T14:57:58.715Z,10.23
2022-11-25T15:00:25.426Z,10.18
2022-11-25T15:03:00.392Z,10.14
2022-11-25T15:05:35.156Z,10.17
2022-11-25T15:08:14.542Z,10.13
2022-11-25T15:10:51.989Z,10.11
2022-11-25T15:13:38.916Z,10.00
2022-11-25T15:16:13.847Z,9.99
2022-11-25T15:18:57.173Z,9.99
2022-11-25T15:21:29.782Z,9.97
2022-11-25T15:23:56.397Z,9.91
2022-11-25T15:26:26.279Z,9.82
2022-11-25T15:29:02.306Z,9.76
2022-11-25T15:31:34.527Z,9.69
2022-11-25T15:34:05.065Z,9.65
2022-11-25T15:36:31.681Z,9.56
2022-11-25T15:39:20.336Z,9.57
2022-11-25T15:41:51.831Z,9.54
2022-11-25T15:44:44.460Z,9.53
2022-11-25T15:47:24.953Z,9.52
2022-11-25T15:50:16.353Z,9.54
2022-11-25T15:52:47.369Z,9.53
2022-11-25T15:55:29.225Z,9.55
2022-11-25T15:58:01.982Z,9.51
2022-11-25T16:00:28.437Z,9.50
2022-11-25T16:02:57.725Z,9.47
2022-11-25T16:05:31.853Z,9.51
2022-11-25T16:08:01.620Z,9.53
2022-11-25T16:10:32.654Z,9.57
2022-11-25T16:13:23.563Z,9.56
2022-11-25T16:15:59.547Z,9.58
2022-11-25T16:18:41.563Z,9.62
2022-11-25T16:21:12.765Z,9.59
2022-11-25T16:23:44.154Z,9.59
2022-11-25T16:26:17.425Z,9.58
2022-11-25T16:28:52.008Z,9.54
2022-11-25T16:31:19.802Z,9.56
2022-11-25T16:33:46.554Z,9.56
2022-11-25T16:36:14.337Z,9.55
2022-11-25T16:38:40.876Z,9.58
2022-11-25T16:41:37.091Z,9.70
2022-11-25T16:44:18.134Z,9.74
2022-11-25T16:46:44.845Z,9.68
2022-11-25T16:49:14.291Z,9.50
2022-11-25T16:51:40.855Z,9.36
2022-11-25T16:54:07.576Z,9.28
2022-11-25T16:56:37.502Z,9.19
2022-11-25T16:59:04.303Z,9.01
2022-11-25T17:01:31.436Z,9.02
2022-11-25T17:03:57.966Z,9.01
2022-11-25T17:06:26.857Z,8.79
2022-11-25T17:08:53.296Z,8.83
2022-11-25T17:11:25.739Z,8.68
2022-11-25T17:13:53.604Z,8.68
2022-11-25T17:16:23.560Z,8.64
2022-11-25T17:18:51.943Z,8.51
2022-11-25T17:21:18.734Z,8.49
2022-11-25T17:23:46.104Z,8.46
2022-11-25T17:26:20.629Z,8.48
2022-11-25T17:28:54.584Z,8.55
2022-11-25T17:31:27.455Z,8.77
2022-11-25T17:33:54.419Z,8.79
2022-11-25T17:36:21.808Z,8.83
2022-11-25T17:38:49.031Z,8.89
2022-11-25T17:41:18.022Z,8.91
2022-11-25T17:43:46.583Z,8.92
2022-11-25T17:46:14.947Z,8.91
2022-11-25T17:48:42.472Z,8.96
2022-11-25T17:51:13.277Z,9.02
2022-11-25T17:53:40.688Z,9.03
2022-11-25T17:56:36.607Z,8.98
2022-11-25T17:59:06.108Z,8.94
2022-11-25T18:01:32.612Z,8.97
2022-11-25T18:03:59.133Z,8.95
2022-11-25T18:06:25.560Z,8.97
2022-11-25T18:08:51.942Z,8.96
2022-11-25T18:11:19.909Z,8.98
2022-11-25T18:13:47.654Z,9.01
2022-11-25T18:16:17.139Z,9.00
2022-11-25T18:18:43.612Z,8.98
2022-11-25T18:21:11.894Z,8.97
2022-11-25T18:23:38.352Z,9.02
2022-11-25T18:26:05.093Z,9.02
2022-11-25T18:28:32.702Z,9.00
2022-11-25T18:31:03.913Z,9.05
2022-11-25T18:33:31.386Z,9.08
2022-11-25T18:35:58.305Z,9.42
2022-11-25T18:38:24.727Z,9.37
2022-11-25T18:40:53.912Z,9.36
2022-11-25T18:43:24.643Z,9.28
2022-11-25T18:45:52.583Z,9.24
2022-11-25T18:48:24.509Z,9.25
2022-11-25T18:50:53.310Z,9.25
2022-11-25T18:53:19.898Z,9.28
2022-11-25T18:55:47.988Z,9.24
2022-11-25T18:58:23.549Z,9.27
2022-11-25T19:00:52.159Z,9.28
2022-11-25T19:03:22.190Z,9.29
2022-11-25T19:05:49.651Z,9.26
2022-11-25T19:08:16.270Z,9.26
2022-11-25T19:10:45.504Z,9.27
2022-11-25T19:13:17.106Z,9.25
2022-11-25T19:15:44.906Z,9.28
2022-11-25T19:18:23.495Z,9.23
2022-11-25T19:20:50.108Z,9.27
2022-11-25T19:23:28.765Z,9.17
2022-11-25T19:26:00.180Z,9.22
2022-11-25T19:28:27.168Z,9.07
2022-11-25T19:31:04.656Z,9.08
2022-11-25T19:33:34.713Z,9.11
2022-11-25T19:36:01.590Z,9.16
2022-11-25T19:38:28.222Z,9.24
2022-11-25T19:40:56.605Z,9.28
2022-11-25T19:43:26.921Z,9.14
2022-11-25T19:45:55.532Z,9.14
2022-11-25T19:48:22.707Z,9.10
2022-11-25T19:50:59.016Z,9.11
2022-11-25T19:53:31.728Z,9.12
2022-11-25T19:56:04.005Z,9.06
2022-11-25T19:58:30.870Z,9.06
2022-11-25T20:01:01.014Z,8.99
2022-11-25T20:03:30.598Z,8.95
2022-11-25T20:05:57.689Z,8.78
2022-11-25T20:08:26.817Z,8.80
2022-11-25T20:10:54.339Z,8.80
2022-11-25T20:13:23.419Z,8.78
2022-11-25T20:15:50.566Z,8.77
2022-11-25T20:18:20.391Z,8.72
2022-11-25T20:20:50.004Z,8.57
2022-11-25T20:23:32.864Z,8.54
2022-11-25T20:25:59.610Z,8.48
2022-11-25T20:28:30.126Z,8.43
2022-11-25T20:30:59.137Z,8.38
2022-11-25T20:33:27.053Z,8.39
2022-11-25T20:36:03.214Z,8.08
2022-11-25T20:38:32.438Z,8.05
2022-11-25T20:41:00.533Z,8.10
2022-11-25T20:43:30.786Z,8.01
2022-11-25T20:45:58.342Z,8.02
2022-11-25T20:48:25.627Z,8.11
2022-11-25T20:50:53.290Z,8.13
2022-11-25T20:53:22.441Z,8.08
2022-11-25T20:55:49.726Z,8.16
2022-11-25T20:58:21.495Z,8.15
2022-11-25T21:00:52.798Z,7.93
2022-11-25T21:03:22.615Z,8.01
2022-11-25T21:05:50.682Z,8.07
2022-11-25T21:08:23.999Z,8.04
2022-11-25T21:10:53.932Z,8.04
2022-11-25T21:13:29.277Z,8.15
2022-11-25T21:15:59.142Z,7.99
2022-11-25T21:18:25.679Z,8.01
2022-11-25T21:20:54.121Z,7.96
2022-11-25T21:23:27.614Z,7.97
2022-11-25T21:25:55.474Z,7.84
2022-11-25T21:28:26.772Z,7.75
2022-11-25T21:30:53.532Z,7.72
2022-11-25T21:33:19.944Z,7.72
2022-11-25T21:35:50.435Z,7.73
2022-11-25T21:38:20.958Z,7.65
2022-11-25T21:40:52.357Z,7.59
2022-11-25T21:43:29.801Z,7.62
2022-11-25T21:46:01.549Z,7.60
2022-11-25T21:48:31.344Z,7.80
2022-11-25T21:50:58.941Z,7.87
2022-11-25T21:53:27.251Z,7.82
2022-11-25T21:55:54.202Z,7.64
2022-11-25T21:58:28.642Z,7.48
2022-11-25T22:00:58.326Z,7.40
2022-11-25T22:03:26.210Z,7.20
2022-11-25T22:05:52.782Z,7.23
2022-11-25T22:08:19.251Z,7.19
2022-11-25T22:10:48.918Z,7.08
2022-11-25T22:13:22.301Z,7.07
2022-11-25T22:15:50.702Z,6.78
2022-11-25T22:18:28.153Z,6.76
2022-11-25T22:20:54.723Z,6.74
2022-11-25T22:23:22.024Z,6.70
2022-11-25T22:25:50.185Z,6.73
2022-11-25T22:28:19.976Z,6.88
2022-11-25T22:30:50.987Z,6.76
2022-11-25T22:33:18.207Z,6.77
2022-11-25T22:35:44.647Z,6.81
2022-11-25T22:38:16.402Z,6.81
2022-11-25T22:40:45.723Z,6.81
2022-11-25T22:43:17.163Z,6.89
2022-11-25T22:45:44.352Z,6.74
2022-11-25T22:48:15.803Z,6.80
2022-11-25T22:50:43.956Z,6.98
2022-11-25T22:53:14.733Z,6.99
2022-11-25T22:55:41.609Z,6.94
2022-11-25T22:58:08.353Z,7.08
2022-11-25T23:00:38.425Z,7.24
2022-11-25T23:03:19.105Z,7.26
2022-11-25T23:05:46.035Z,7.17
2022-11-25T23:08:18.803Z,7.24
2022-11-25T23:10:46.599Z,7.24
2022-11-25T23:13:14.636Z,7.25
2022-11-25T23:15:55.795Z,7.30
2022-11-25T23:18:39.028Z,7.32
2022-11-25T23:21:07.006Z,7.31
2022-11-25T23:23:33.406Z,7.37
2022-11-25T23:25:59.955Z,7.36
2022-11-25T23:28:26.663Z,7.32
2022-11-25T23:30:58.686Z,7.12
2022-11-25T23:33:37.828Z,7.23
2022-11-25T23:36:12.587Z,7.14
2022-11-25T23:38:43.606Z,7.06
2022-11-25T23:41:22.146Z,6.94
2022-11-25T23:43:49.445Z,6.97
2022-11-25T23:46:19.018Z,6.97
2022-11-25T23:48:52.685Z,6.85
2022-11-25T23:51:20.877Z,6.71
2022-11-25T23:53:47.345Z,6.82
2022-11-25T23:56:14.184Z,6.76
2022-11-25T23:58:40.645Z,6.79
